Time;durP1;ratioP1;P1;durP2;ratioP2;P2;SDS_P1;SDS_P2;PMS_P1;PMS_P2;Temp;Humidity;BMP_temperature;BMP_pressure;BME280_temperature;BME280_humidity;BME280_pressure;Samples;Min_cycle;Max_cycle;Signal;HPM_P1;HPM_P2
2022/11/10 00:01:43;;;;;;;12.02;6.85;;;14.50;99.90;;;;;;5064104;28;20048;-75
2022/11/10 00:04:29;;;;;;;11.32;7.28;;;14.50;99.90;;;;;;5047747;28;20049;-75
2022/11/10 00:07:16;;;;;;;8.45;6.28;;;14.40;99.90;;;;;;5048445;28;20048;-75
2022/11/10 00:10:04;;;;;;;11.52;6.90;;;14.40;99.90;;;;;;5057594;28;20051;-76
2022/11/10 00:12:51;;;;;;;8.43;6.63;;;14.40;99.90;;;;;;5060973;28;20071;-74
2022/11/10 00:18:42;;;;;;;10.98;8.00;;;14.40;99.90;;;;;;5078433;28;20383;-76
2022/11/10 00:21:28;;;;;;;10.60;7.45;;;14.40;99.90;;;;;;5065044;28;20528;-75
2022/11/10 00:24:15;;;;;;;11.73;8.98;;;14.40;99.90;;;;;;5060107;28;20052;-74
2022/11/10 00:27:01;;;;;;;10.80;7.70;;;14.40;99.90;;;;;;5065684;28;20120;-75
2022/11/10 00:29:47;;;;;;;12.18;8.05;;;14.30;99.90;;;;;;5049425;28;20379;-74
2022/11/10 00:32:33;;;;;;;16.25;9.70;;;14.30;99.90;;;;;;5063928;28;20123;-74
2022/11/10 00:35:20;;;;;;;14.98;9.38;;;14.30;99.90;;;;;;5064041;28;20131;-74
2022/11/10 00:38:06;;;;;;;12.95;8.80;;;14.20;99.90;;;;;;5048462;28;20059;-75
2022/11/10 00:40:52;;;;;;;11.70;9.30;;;14.20;99.90;;;;;;5063958;28;20055;-75
2022/11/10 00:43:38;;;;;;;13.43;10.17;;;14.20;99.90;;;;;;5058885;28;20047;-77
2022/11/10 00:46:25;;;;;;;14.90;10.35;;;14.20;99.90;;;;;;5059942;28;20302;-76
2022/11/10 00:49:11;;;;;;;14.27;9.00;;;14.20;99.90;;;;;;5062685;28;20074;-74
2022/11/10 00:51:57;;;;;;;10.68;8.32;;;14.20;99.90;;;;;;5063270;28;20099;-74
2022/11/10 00:54:43;;;;;;;14.77;9.38;;;14.20;99.90;;;;;;5062310;28;20056;-77
2022/11/10 00:57:30;;;;;;;21.48;9.57;;;14.20;99.90;;;;;;5064364;28;20048;-74
2022/11/10 01:00:16;;;;;;;11.30;9.48;;;14.20;99.90;;;;;;5050455;28;20059;-75
2022/11/10 01:03:02;;;;;;;16.00;10.50;;;14.20;99.90;;;;;;5064292;28;20039;-75
2022/11/10 01:05:48;;;;;;;14.93;9.30;;;14.20;99.90;;;;;;5064251;28;20083;-76
2022/11/10 01:08:35;;;;;;;12.75;8.60;;;14.20;99.90;;;;;;5068902;28;20045;-76
2022/11/10 01:11:27;;;;;;;14.00;9.48;;;14.20;99.90;;;;;;5043553;28;20056;-75
2022/11/10 01:14:13;;;;;;;12.63;9.45;;;14.20;99.90;;;;;;5065156;28;20060;-76
2022/11/10 01:16:59;;;;;;;12.32;9.35;;;14.10;99.90;;;;;;5065942;28;20137;-75
2022/11/10 01:19:45;;;;;;;15.05;10.75;;;14.10;99.90;;;;;;5065648;28;20516;-75
2022/11/10 01:22:31;;;;;;;15.98;10.30;;;14.10;99.90;;;;;;5052491;28;20045;-76
2022/11/10 01:25:18;;;;;;;11.65;8.32;;;14.10;99.90;;;;;;5064001;28;20515;-76
2022/11/10 01:28:04;;;;;;;14.35;9.10;;;14.10;99.90;;;;;;5060611;28;20422;-75
2022/11/10 01:31:00;;;;;;;13.63;9.52;;;14.20;99.90;;;;;;5047080;28;20044;-75
2022/11/10 01:33:46;;;;;;;13.20;9.88;;;14.10;99.90;;;;;;5065129;28;20817;-75
2022/11/10 01:36:32;;;;;;;12.98;10.43;;;14.00;99.90;;;;;;5065600;28;20344;-75
2022/11/10 01:39:19;;;;;;;14.57;9.20;;;14.00;99.90;;;;;;5070507;28;20049;-75
2022/11/10 01:42:05;;;;;;;14.80;10.15;;;14.00;99.90;;;;;;5055280;28;20056;-74
2022/11/10 01:45:23;;;;;;;11.85;8.48;;;13.90;99.90;;;;;;5066782;28;20051;-76
2022/11/10 01:48:16;;;;;;;12.20;8.32;;;13.90;99.90;;;;;;5054030;28;20048;-76
2022/11/10 01:51:24;;;;;;;10.98;8.40;;;13.90;99.90;;;;;;5069575;28;20051;-76
2022/11/10 01:54:14;;;;;;;11.90;8.15;;;13.80;99.90;;;;;;5068062;28;20048;-75
2022/11/10 01:57:06;;;;;;;11.05;7.97;;;13.90;99.90;;;;;;5069156;28;20475;-75
2022/11/10 01:59:52;;;;;;;9.35;6.45;;;13.90;99.90;;;;;;5054048;28;20055;-76
2022/11/10 02:02:46;;;;;;;11.07;6.37;;;13.90;99.90;;;;;;5056025;28;20048;-75
2022/11/10 02:05:33;;;;;;;12.05;8.45;;;13.80;99.90;;;;;;5068253;28;20599;-75
2022/11/10 02:08:22;;;;;;;9.70;6.78;;;13.90;99.90;;;;;;5068594;28;20051;-75
2022/11/10 02:11:08;;;;;;;12.23;6.45;;;13.80;99.90;;;;;;5055152;28;20386;-75
2022/11/10 02:13:55;;;;;;;8.43;6.13;;;13.80;99.90;;;;;;5068327;28;20098;-75
2022/11/10 02:16:42;;;;;;;9.80;6.57;;;13.80;99.90;;;;;;5067961;28;20048;-75
2022/11/10 02:19:28;;;;;;;8.52;6.13;;;13.80;99.90;;;;;;5053890;28;20059;-75
2022/11/10 02:22:14;;;;;;;8.45;6.40;;;13.80;99.90;;;;;;5053738;28;20143;-75
2022/11/10 02:25:01;;;;;;;10.07;6.97;;;13.90;99.90;;;;;;5066070;28;20129;-75
2022/11/10 02:27:47;;;;;;;11.40;7.30;;;13.90;99.90;;;;;;5069428;28;20137;-77
2022/11/10 02:30:33;;;;;;;9.52;7.18;;;13.90;99.90;;;;;;5055178;28;20056;-75
2022/11/10 02:33:19;;;;;;;12.65;8.48;;;13.90;99.90;;;;;;5069727;28;20564;-76
2022/11/10 02:36:05;;;;;;;10.52;6.82;;;13.80;99.90;;;;;;5057318;28;20045;-75
2022/11/10 02:38:51;;;;;;;8.18;6.57;;;13.80;99.90;;;;;;5049971;28;20044;-75
2022/11/10 02:41:38;;;;;;;9.73;7.10;;;13.80;99.90;;;;;;5048921;28;20071;-76
2022/11/10 02:44:24;;;;;;;15.27;7.50;;;13.80;99.90;;;;;;5049297;28;20075;-75
2022/11/10 02:47:10;;;;;;;10.80;7.20;;;13.80;99.90;;;;;;5035355;28;20052;-75
2022/11/10 02:49:56;;;;;;;11.95;7.18;;;13.80;99.90;;;;;;5035444;28;20044;-75
2022/11/10 02:52:42;;;;;;;8.67;6.13;;;13.80;99.90;;;;;;5035052;28;20202;-75
2022/11/10 02:55:28;;;;;;;11.48;7.00;;;13.80;99.90;;;;;;5035292;28;20067;-77
2022/11/10 02:58:14;;;;;;;10.03;7.33;;;13.70;99.90;;;;;;5035176;28;20516;-75
2022/11/10 03:01:04;;;;;;;10.50;6.93;;;13.80;99.90;;;;;;5054713;28;20045;-75
2022/11/10 03:03:51;;;;;;;9.68;6.18;;;13.70;99.90;;;;;;5055076;28;20051;-75
2022/11/10 03:06:37;;;;;;;9.07;6.37;;;13.80;99.90;;;;;;5037828;28;20074;-76
2022/11/10 03:09:23;;;;;;;13.75;7.82;;;13.70;99.90;;;;;;5048809;28;20566;-75
2022/11/10 03:12:09;;;;;;;12.90;7.78;;;13.80;99.90;;;;;;5050249;28;20053;-76
2022/11/10 03:14:55;;;;;;;9.03;6.77;;;13.80;99.90;;;;;;5035448;28;20114;-75
2022/11/10 03:17:42;;;;;;;10.60;6.78;;;13.90;99.90;;;;;;5050024;28;20291;-76
2022/11/10 03:20:28;;;;;;;15.43;7.88;;;13.80;99.90;;;;;;5034772;28;20075;-75
2022/11/10 03:23:17;;;;;;;8.57;6.43;;;13.90;99.90;;;;;;5049921;28;20037;-75
2022/11/10 03:26:04;;;;;;;13.25;6.10;;;13.90;99.90;;;;;;5034726;28;20420;-78
2022/11/10 03:28:50;;;;;;;11.35;7.43;;;13.90;99.90;;;;;;5034391;28;20044;-75
2022/11/10 03:31:36;;;;;;;9.40;7.03;;;13.90;99.90;;;;;;5048504;28;20045;-76
2022/11/10 03:34:23;;;;;;;9.57;6.80;;;13.90;99.90;;;;;;5034347;28;20243;-75
2022/11/10 03:37:10;;;;;;;9.10;7.38;;;13.90;99.90;;;;;;5049771;28;20033;-75
2022/11/10 03:39:56;;;;;;;10.07;7.53;;;13.80;99.90;;;;;;5048324;28;20044;-75
2022/11/10 03:42:43;;;;;;;11.75;6.88;;;13.80;99.90;;;;;;5048750;28;20097;-75
2022/11/10 03:45:29;;;;;;;8.52;5.88;;;13.80;99.90;;;;;;5048297;28;20041;-76
2022/11/10 03:48:16;;;;;;;10.77;7.33;;;13.80;99.90;;;;;;5047957;28;20055;-77
2022/11/10 03:51:03;;;;;;;9.07;6.80;;;13.80;99.90;;;;;;5033304;28;20713;-75
2022/11/10 03:53:50;;;;;;;11.88;6.93;;;13.80;99.90;;;;;;5049308;28;20591;-75
2022/11/10 03:56:36;;;;;;;8.95;6.65;;;13.80;99.90;;;;;;5047619;28;20045;-75
2022/11/10 03:59:23;;;;;;;9.73;6.85;;;13.80;99.90;;;;;;5033899;28;20076;-75
2022/11/10 04:02:09;;;;;;;10.50;5.90;;;13.80;99.90;;;;;;5064824;28;20139;-75
2022/11/10 04:11:05;;;;;;;10.15;7.28;;;13.60;99.90;;;;;;5068067;28;20079;-75
2022/11/10 04:16:57;;;;;;;9.93;7.70;;;13.60;99.90;;;;;;5067904;28;20052;-76
2022/11/10 04:19:43;;;;;;;;;;;13.60;99.90;;;;;;5068025;28;20039;-76
2022/11/10 04:26:27;;;;;;;10.32;6.90;;;13.50;99.90;;;;;;5067241;28;20131;-75
2022/11/10 04:28:40;;;;;;;10.38;6.70;;;13.50;99.90;;;;;;5067509;28;20059;-75
2022/11/10 04:31:28;;;;;;;9.73;7.07;;;13.50;99.90;;;;;;5052904;28;20040;-75
2022/11/10 04:34:15;;;;;;;9.05;6.35;;;13.50;99.90;;;;;;5033894;28;20148;-75
2022/11/10 04:37:01;;;;;;;10.63;6.53;;;13.50;99.90;;;;;;5033861;28;20044;-76
2022/11/10 04:39:47;;;;;;;9.90;5.57;;;13.50;99.90;;;;;;5033686;28;20052;-75
2022/11/10 04:42:33;;;;;;;9.97;7.17;;;13.50;99.90;;;;;;5033172;28;20708;-75
2022/11/10 04:45:19;;;;;;;8.02;5.80;;;13.50;99.90;;;;;;5034957;28;20624;-75
2022/11/10 04:48:05;;;;;;;9.40;6.38;;;13.50;99.90;;;;;;5061115;28;20040;-75
2022/11/10 04:50:52;;;;;;;9.07;6.32;;;13.50;99.90;;;;;;5047510;28;20182;-76
2022/11/10 04:53:38;;;;;;;8.80;5.95;;;13.60;99.90;;;;;;5065739;28;20055;-76
2022/11/10 04:56:25;;;;;;;12.48;6.63;;;13.50;99.90;;;;;;5065203;28;20079;-76
2022/11/10 04:59:11;;;;;;;7.68;5.55;;;13.60;99.90;;;;;;5051471;28;20048;-73
2022/11/10 05:01:58;;;;;;;8.63;5.30;;;13.60;99.90;;;;;;5065055;28;20059;-73
2022/11/10 05:04:44;;;;;;;6.47;4.88;;;13.60;99.90;;;;;;5060393;28;20072;-73
2022/11/10 05:07:30;;;;;;;9.15;5.82;;;13.60;99.90;;;;;;5050993;28;20048;-73
2022/11/10 05:10:16;;;;;;;7.65;4.95;;;13.60;99.90;;;;;;5064464;28;20037;-73
2022/11/10 05:13:03;;;;;;;10.32;6.03;;;13.60;99.90;;;;;;5047971;28;20122;-76
2022/11/10 05:15:50;;;;;;;8.77;6.90;;;13.60;99.90;;;;;;5061484;28;20124;-76
2022/11/10 05:18:37;;;;;;;7.50;4.80;;;13.60;99.90;;;;;;5067871;28;20111;-76
2022/11/10 05:21:23;;;;;;;8.10;5.20;;;13.60;99.90;;;;;;5068730;28;20114;-77
2022/11/10 05:24:09;;;;;;;5.78;4.85;;;13.50;99.90;;;;;;5070424;28;20052;-75
2022/11/10 05:26:55;;;;;;;7.63;5.30;;;13.50;99.90;;;;;;5063948;28;20504;-74
2022/11/10 05:29:42;;;;;;;7.47;4.85;;;13.50;99.90;;;;;;5057068;28;20044;-74
2022/11/10 05:32:28;;;;;;;6.88;4.50;;;13.60;99.90;;;;;;5068479;28;20054;-76
2022/11/10 05:35:14;;;;;;;6.75;5.03;;;13.60;99.90;;;;;;5067306;28;20395;-75
2022/11/10 05:38:01;;;;;;;8.07;5.00;;;13.60;99.90;;;;;;5062943;28;20482;-74
2022/11/10 05:40:47;;;;;;;7.03;4.32;;;13.60;99.90;;;;;;5058232;28;20414;-76
2022/11/10 05:43:34;;;;;;;8.82;5.70;;;13.60;99.90;;;;;;5055309;28;20056;-75
2022/11/10 05:46:20;;;;;;;8.52;4.95;;;13.70;99.90;;;;;;5056346;28;20051;-75
2022/11/10 05:49:06;;;;;;;7.77;5.10;;;13.80;99.90;;;;;;5056116;28;20097;-75
2022/11/10 05:51:52;;;;;;;5.90;4.70;;;14.00;99.90;;;;;;5056230;28;20807;-75
2022/11/10 05:54:39;;;;;;;7.22;5.18;;;14.30;99.90;;;;;;5070542;28;20294;-75
2022/11/10 05:57:25;;;;;;;7.85;4.93;;;14.60;99.90;;;;;;5056575;28;20045;-76
2022/11/10 06:00:13;;;;;;;5.93;3.58;;;14.90;99.90;;;;;;5071189;28;20115;-76
2022/11/10 06:03:20;;;;;;;6.88;3.95;;;15.30;99.90;;;;;;5070242;28;20124;-76
2022/11/10 06:06:06;;;;;;;5.72;4.50;;;15.60;99.90;;;;;;5070493;28;20051;-76
2022/11/10 06:08:52;;;;;;;6.00;4.88;;;15.90;99.90;;;;;;5070050;28;20052;-76
2022/11/10 06:11:38;;;;;;;4.45;3.40;;;16.10;99.90;;;;;;5055780;28;20800;-76
2022/11/10 06:14:24;;;;;;;7.28;4.15;;;16.30;99.90;;;;;;5069459;28;20053;-76
2022/11/10 06:17:11;;;;;;;6.97;5.05;;;16.40;99.90;;;;;;5070130;28;20052;-77
2022/11/10 06:19:57;;;;;;;5.10;3.92;;;16.20;99.90;;;;;;5071276;28;20165;-76
2022/11/10 06:22:44;;;;;;;6.30;4.10;;;16.20;99.90;;;;;;5069731;28;20511;-76
2022/11/10 06:25:32;;;;;;;5.90;3.80;;;16.40;99.90;;;;;;5055642;28;20064;-75
2022/11/10 06:28:18;;;;;;;5.53;3.65;;;16.80;99.90;;;;;;5070001;28;20487;-76
2022/11/10 06:31:05;;;;;;;5.15;3.60;;;17.30;99.90;;;;;;5070027;28;20048;-76
2022/11/10 06:33:51;;;;;;;6.93;4.60;;;17.80;99.90;;;;;;5053487;28;20187;-76
2022/11/10 06:36:39;;;;;;;4.10;2.95;;;18.50;99.90;;;;;;5055533;28;20048;-75
2022/11/10 06:39:25;;;;;;;6.40;3.80;;;18.80;99.90;;;;;;5068469;28;20730;-75
2022/11/10 06:42:11;;;;;;;5.80;4.00;;;19.10;99.90;;;;;;5068911;28;20061;-75
2022/11/10 06:44:58;;;;;;;5.68;3.72;;;19.70;99.90;;;;;;5069298;28;20075;-75
2022/11/10 06:47:44;;;;;;;7.70;3.63;;;20.00;99.90;;;;;;5055728;28;20824;-75
2022/11/10 06:50:30;;;;;;;5.50;3.47;;;20.20;99.90;;;;;;5055506;28;20075;-75
2022/11/10 06:53:17;;;;;;;5.10;3.25;;;20.50;99.90;;;;;;5068714;28;20048;-76
2022/11/10 06:56:05;;;;;;;4.65;3.80;;;20.60;99.90;;;;;;5069695;28;20194;-76
2022/11/10 06:58:51;;;;;;;5.63;3.28;;;20.70;99.90;;;;;;5070305;28;20124;-75
2022/11/10 07:01:37;;;;;;;7.22;3.42;;;20.90;99.90;;;;;;5068872;28;20079;-76
2022/11/10 07:04:23;;;;;;;4.53;3.22;;;21.10;99.90;;;;;;5068562;28;20055;-75
2022/11/10 07:07:10;;;;;;;4.50;2.97;;;21.20;99.90;;;;;;5054445;28;20053;-75
2022/11/10 07:09:57;;;;;;;4.97;4.00;;;21.20;99.90;;;;;;5054920;28;20055;-75
2022/11/10 07:12:47;;;;;;;4.13;3.00;;;21.30;99.90;;;;;;5069020;28;20663;-75
2022/11/10 07:15:36;;;;;;;4.32;3.10;;;21.10;99.90;;;;;;5068953;28;20044;-74
2022/11/10 07:18:22;;;;;;;5.90;3.33;;;21.00;99.90;;;;;;5068708;28;20117;-75
2022/11/10 07:21:09;;;;;;;8.90;3.42;;;20.80;99.90;;;;;;5069393;28;20045;-75
2022/11/10 07:23:55;;;;;;;;;;;20.60;99.90;;;;;;5067479;28;20149;-74
2022/11/10 07:26:41;;;;;;;3.95;2.95;;;20.60;99.90;;;;;;5068557;28;19932;-75
2022/11/10 07:29:27;;;;;;;4.72;3.25;;;21.20;99.90;;;;;;5068398;28;20028;-75
2022/11/10 07:32:13;;;;;;;5.40;3.35;;;21.50;99.90;;;;;;5067308;28;20114;-75
2022/11/10 07:34:59;;;;;;;5.90;3.45;;;21.60;99.90;;;;;;5068836;28;20044;-74
2022/11/10 07:37:45;;;;;;;4.53;3.22;;;21.80;99.90;;;;;;5068257;28;20052;-75
2022/11/10 07:40:32;;;;;;;4.32;3.25;;;21.50;99.90;;;;;;5054138;28;20076;-75
2022/11/10 07:43:19;;;;;;;4.60;3.65;;;21.00;99.90;;;;;;5054149;28;20135;-74
2022/11/10 07:46:06;;;;;;;9.10;4.72;;;20.60;99.90;;;;;;5053505;28;20040;-74
2022/11/10 07:48:52;;;;;;;5.82;3.47;;;20.20;99.90;;;;;;5053768;28;20044;-75
2022/11/10 07:51:38;;;;;;;6.28;3.40;;;20.00;99.90;;;;;;5068661;28;20052;-75
2022/11/10 07:54:24;;;;;;;4.88;3.20;;;20.00;99.90;;;;;;5053913;28;20143;-75
2022/11/10 07:57:11;;;;;;;6.50;3.55;;;20.00;99.90;;;;;;5054144;28;20067;-74
2022/11/10 07:59:59;;;;;;;6.80;4.45;;;20.00;99.90;;;;;;5053846;28;20049;-74
2022/11/10 08:02:45;;;;;;;4.65;3.25;;;20.00;99.90;;;;;;5067579;28;20127;-75
2022/11/10 08:05:33;;;;;;;5.32;3.08;;;20.10;99.90;;;;;;5053428;28;20045;-75
2022/11/10 08:08:19;;;;;;;8.25;4.03;;;20.00;99.90;;;;;;5053727;28;20131;-75
2022/11/10 08:11:05;;;;;;;6.25;3.00;;;20.10;99.90;;;;;;5067817;28;20052;-75
2022/11/10 08:13:51;;;;;;;4.55;2.78;;;20.00;99.90;;;;;;5069166;28;20048;-74
2022/11/10 08:16:37;;;;;;;5.07;3.13;;;20.30;99.90;;;;;;5068349;28;20341;-75
2022/11/10 08:19:24;;;;;;;4.55;3.10;;;20.60;99.90;;;;;;5053778;28;20410;-75
2022/11/10 08:22:11;;;;;;;3.17;2.15;;;20.90;99.90;;;;;;5065200;28;20119;-75
2022/11/10 08:25:00;;;;;;;5.05;2.47;;;20.90;99.90;;;;;;5053514;28;20502;-74
2022/11/10 08:27:47;;;;;;;5.32;2.85;;;20.90;99.90;;;;;;5048859;28;20411;-75
2022/11/10 08:30:35;;;;;;;7.20;3.20;;;21.00;99.90;;;;;;5066601;28;20558;-75
2022/11/10 08:33:21;;;;;;;3.97;2.45;;;21.30;99.90;;;;;;5067062;28;20048;-75
2022/11/10 08:36:08;;;;;;;3.70;2.70;;;21.40;99.90;;;;;;5068385;28;20055;-75
2022/11/10 08:38:54;;;;;;;;;;;21.60;99.90;;;;;;5053361;28;20047;-74
2022/11/10 08:41:40;;;;;;;3.42;2.08;;;21.50;99.90;;;;;;5067458;28;20236;-77
2022/11/10 08:44:26;;;;;;;5.05;3.22;;;21.40;99.90;;;;;;5067238;28;20348;-74
2022/11/10 08:47:12;;;;;;;4.05;2.45;;;21.00;99.90;;;;;;5059657;28;20048;-74
2022/11/10 08:49:58;;;;;;;2.75;2.20;;;20.90;99.90;;;;;;5072269;28;20044;-75
2022/11/10 08:52:44;;;;;;;4.20;2.30;;;21.00;99.90;;;;;;5073716;28;20050;-75
2022/11/10 08:55:31;;;;;;;3.55;2.70;;;21.20;99.90;;;;;;5074991;28;20775;-75
2022/11/10 08:58:18;;;;;;;;;;;21.20;99.90;;;;;;5075552;28;20049;-74
2022/11/10 09:01:11;;;;;;;3.03;2.35;;;21.10;99.90;;;;;;5073496;28;19920;-75
2022/11/10 09:03:57;;;;;;;3.88;2.10;;;21.20;99.90;;;;;;5074521;28;20064;-75
2022/11/10 09:06:43;;;;;;;3.10;1.93;;;21.20;99.90;;;;;;5073231;28;20048;-75
2022/11/10 09:09:29;;;;;;;2.47;1.70;;;21.10;99.90;;;;;;5074193;28;20286;-76
2022/11/10 09:12:16;;;;;;;3.03;2.28;;;21.10;99.90;;;;;;5073438;28;20067;-76
2022/11/10 09:15:02;;;;;;;2.85;2.22;;;21.10;99.90;;;;;;5075056;28;20110;-73
2022/11/10 09:17:49;;;;;;;2.90;1.88;;;21.50;99.90;;;;;;5059525;28;20461;-74
2022/11/10 09:20:36;;;;;;;3.40;2.05;;;21.90;99.90;;;;;;5072647;28;20040;-74
2022/11/10 09:23:23;;;;;;;2.75;1.70;;;22.30;99.90;;;;;;5074904;28;20116;-72
2022/11/10 09:26:11;;;;;;;8.93;2.35;;;22.60;99.90;;;;;;5074599;28;20045;-72
2022/11/10 09:28:57;;;;;;;6.10;2.40;;;23.00;99.90;;;;;;5059347;28;20512;-73
2022/11/10 09:31:44;;;;;;;2.88;2.10;;;23.20;99.90;;;;;;5059414;28;20049;-73
2022/11/10 09:34:29;;;;;;;3.15;1.92;;;23.20;99.90;;;;;;5074723;28;20044;-73
2022/11/10 09:37:16;;;;;;;5.05;2.45;;;23.30;99.90;;;;;;5074036;28;20414;-73
2022/11/10 09:40:03;;;;;;;2.95;1.98;;;23.20;99.90;;;;;;5074545;28;20711;-73
2022/11/10 09:42:54;;;;;;;3.95;2.33;;;22.80;99.90;;;;;;5073703;28;20052;-73
2022/11/10 09:45:42;;;;;;;2.83;2.22;;;22.50;99.90;;;;;;5073029;28;20056;-72
2022/11/10 09:48:32;;;;;;;2.78;2.17;;;21.90;99.90;;;;;;5072811;28;20191;-73
2022/11/10 09:51:29;;;;;;;4.40;2.60;;;21.50;99.90;;;;;;5059865;28;20052;-72
2022/11/10 09:54:33;;;;;;;5.65;2.65;;;21.20;99.90;;;;;;5071502;28;20169;-78
2022/11/10 09:57:23;;;;;;;3.28;2.35;;;21.10;99.90;;;;;;5071238;28;20044;-73
2022/11/10 10:00:16;;;;;;;6.13;3.55;;;21.00;99.90;;;;;;5068468;28;20097;-73
2022/11/10 10:03:05;;;;;;;6.28;3.38;;;21.00;99.90;;;;;;5057964;28;20040;-74
2022/11/10 10:05:57;;;;;;;6.38;3.67;;;20.80;99.90;;;;;;5051200;28;20061;-73
2022/11/10 10:09:21;;;;;;;5.28;3.70;;;20.70;99.90;;;;;;5063838;28;20139;-75
2022/11/10 10:12:13;;;;;;;5.93;2.95;;;20.60;99.90;;;;;;5001925;28;20072;-73
2022/11/10 10:15:09;;;;;;;4.38;2.13;;;20.60;99.90;;;;;;5068598;28;20044;-72
2022/11/10 10:17:58;;;;;;;5.90;3.08;;;20.70;99.90;;;;;;5070250;28;20048;-75
2022/11/10 10:21:09;;;;;;;5.65;3.35;;;20.90;99.90;;;;;;5071189;28;20119;-73
2022/11/10 10:23:58;;;;;;;3.03;2.47;;;21.20;99.90;;;;;;5069822;28;20371;-73
2022/11/10 10:26:56;;;;;;;3.78;2.13;;;21.20;99.90;;;;;;5069346;28;20405;-73
2022/11/10 10:29:45;;;;;;;5.20;2.53;;;21.30;99.90;;;;;;5055890;28;20052;-72
2022/11/10 10:32:31;;;;;;;4.07;3.17;;;21.40;99.90;;;;;;5070270;28;20500;-72
2022/11/10 10:35:18;;;;;;;4.00;2.90;;;21.40;99.90;;;;;;5070930;28;20036;-73
2022/11/10 10:38:11;;;;;;;4.22;3.13;;;21.50;99.90;;;;;;5069897;28;20104;-75
2022/11/10 10:41:09;;;;;;;4.70;3.30;;;21.50;99.90;;;;;;5070664;28;20056;-72
2022/11/10 10:43:58;;;;;;;4.30;2.55;;;21.70;99.90;;;;;;5070820;28;20037;-73
2022/11/10 10:46:50;;;;;;;2.72;2.10;;;22.10;99.90;;;;;;5070381;28;20048;-72
2022/11/10 10:49:37;;;;;;;5.85;1.95;;;22.50;99.90;;;;;;5069737;28;20052;-72
2022/11/10 10:52:25;;;;;;;4.95;2.22;;;22.90;99.90;;;;;;5069227;28;20276;-72
2022/11/10 10:55:12;;;;;;;2.53;1.98;;;22.90;99.90;;;;;;5069351;28;20062;-73
2022/11/10 10:58:02;;;;;;;4.78;2.47;;;22.80;99.90;;;;;;5068566;28;20044;-73
2022/11/10 11:00:55;;;;;;;4.53;2.33;;;22.80;99.90;;;;;;5068342;28;20043;-73
2022/11/10 11:03:48;;;;;;;5.82;2.38;;;22.70;99.90;;;;;;5054838;28;20379;-73
2022/11/10 11:06:35;;;;;;;3.70;2.42;;;22.40;99.90;;;;;;5069547;28;20111;-73
2022/11/10 11:09:26;;;;;;;;;;;22.20;99.90;;;;;;5068334;28;20045;-74
2022/11/10 11:12:25;;;;;;;4.20;3.55;;;22.10;99.90;;;;;;5053946;28;20416;-73
2022/11/10 11:15:28;;;;;;;4.53;2.90;;;22.00;99.90;;;;;;5055079;28;20097;-72
2022/11/10 11:18:19;;;;;;;3.55;2.45;;;21.80;99.90;;;;;;5054186;28;20788;-73
2022/11/10 11:21:24;;;;;;;3.30;2.33;;;21.70;99.90;;;;;;5068892;28;20047;-74
2022/11/10 11:24:27;;;;;;;3.15;2.35;;;21.70;99.90;;;;;;5053503;28;20509;-73
2022/11/10 11:27:38;;;;;;;4.35;2.70;;;21.60;99.90;;;;;;5068425;28;20490;-72
2022/11/10 11:30:37;;;;;;;3.30;2.35;;;21.50;99.90;;;;;;5069130;28;20067;-76
2022/11/10 11:33:49;;;;;;;5.13;2.70;;;21.50;99.90;;;;;;5069809;28;20036;-73
2022/11/10 11:36:46;;;;;;;3.45;2.30;;;21.40;99.90;;;;;;5069459;28;20040;-73
2022/11/10 11:39:52;;;;;;;4.40;2.95;;;21.40;99.90;;;;;;5067815;28;20051;-75
2022/11/10 11:42:38;;;;;;;6.43;2.85;;;21.50;99.90;;;;;;5068997;28;20045;-73
2022/11/10 11:46:05;;;;;;;4.40;3.38;;;21.60;99.90;;;;;;5069190;28;20044;-75
2022/11/10 11:49:25;;;;;;;5.45;2.75;;;21.50;99.90;;;;;;5054062;28;20119;-72
2022/11/10 11:52:50;;;;;;;5.10;3.03;;;21.40;99.90;;;;;;5067449;28;20522;-74
2022/11/10 11:55:36;;;;;;;4.15;2.75;;;21.50;99.90;;;;;;5067067;28;20437;-72
2022/11/10 11:58:42;;;;;;;5.13;3.30;;;21.30;99.90;;;;;;5068884;28;20053;-73
2022/11/10 12:01:54;;;;;;;5.32;2.78;;;21.10;99.90;;;;;;5067794;28;20077;-73
2022/11/10 12:04:44;;;;;;;4.30;2.55;;;20.90;99.90;;;;;;5068848;28;20040;-73
2022/11/10 12:07:49;;;;;;;6.10;3.08;;;20.80;99.90;;;;;;5069002;28;20109;-73
2022/11/10 12:11:14;;;;;;;5.97;3.70;;;20.70;99.90;;;;;;5067843;28;20045;-73
2022/11/10 12:14:16;;;;;;;5.65;3.50;;;20.60;99.90;;;;;;5067083;28;20064;-73
2022/11/10 12:17:19;;;;;;;10.43;3.20;;;20.50;99.90;;;;;;5067150;28;20490;-73
2022/11/10 12:20:33;;;;;;;4.70;3.38;;;20.40;99.90;;;;;;5066737;28;20491;-74
2022/11/10 12:23:30;;;;;;;4.72;2.53;;;20.20;99.90;;;;;;5067006;28;20154;-72
2022/11/10 12:26:59;;;;;;;5.85;2.65;;;20.20;99.90;;;;;;5066914;28;20182;-73
2022/11/10 12:30:05;;;;;;;5.53;2.92;;;20.20;99.90;;;;;;4992190;28;20506;-74
2022/11/10 12:33:02;;;;;;;3.88;2.38;;;20.20;99.90;;;;;;5081521;28;20121;-72
2022/11/10 12:35:52;;;;;;;4.47;2.78;;;20.30;99.90;;;;;;5067439;28;20033;-72
2022/11/10 12:38:57;;;;;;;4.53;3.00;;;20.40;99.90;;;;;;5067624;28;20043;-72
2022/11/10 12:41:50;;;;;;;3.30;2.53;;;20.50;99.90;;;;;;5066977;28;20495;-72
2022/11/10 12:44:44;;;;;;;3.38;2.38;;;20.50;99.90;;;;;;5067134;28;20044;-73
2022/11/10 12:47:40;;;;;;;3.25;2.10;;;20.40;99.90;;;;;;5052954;28;20055;-72
2022/11/10 12:50:48;;;;;;;3.60;2.38;;;20.20;99.90;;;;;;5047391;28;20052;-73
2022/11/10 12:53:40;;;;;;;4.97;3.20;;;20.20;99.90;;;;;;5063990;28;20037;-74
2022/11/10 12:56:42;;;;;;;3.47;2.50;;;20.10;99.90;;;;;;5047072;28;20460;-73
2022/11/10 12:59:31;;;;;;;3.72;2.55;;;20.10;99.90;;;;;;5065321;28;20045;-74
2022/11/10 13:02:54;;;;;;;3.08;2.20;;;20.00;99.90;;;;;;5061370;28;20045;-72
2022/11/10 13:05:44;;;;;;;3.15;2.15;;;19.90;99.90;;;;;;4986947;28;20057;-73
2022/11/10 13:08:45;;;;;;;4.22;2.53;;;20.00;99.90;;;;;;5066166;28;20143;-74
2022/11/10 13:11:36;;;;;;;3.35;2.58;;;20.10;99.90;;;;;;5065479;28;20052;-74
2022/11/10 13:14:28;;;;;;;4.35;2.72;;;20.10;99.90;;;;;;5057910;28;20518;-73
2022/11/10 13:17:27;;;;;;;6.40;3.83;;;20.20;99.90;;;;;;5052901;28;20049;-75
2022/11/10 13:20:38;;;;;;;4.22;2.90;;;20.10;99.90;;;;;;5062133;28;20036;-72
2022/11/10 13:23:54;;;;;;;5.53;3.13;;;20.00;99.90;;;;;;5060422;28;20052;-74
2022/11/10 13:26:42;;;;;;;4.82;2.83;;;19.90;99.90;;;;;;5062357;28;20041;-72
2022/11/10 13:29:47;;;;;;;5.40;2.83;;;19.90;99.90;;;;;;5065774;28;20471;-73
2022/11/10 13:32:34;;;;;;;4.07;2.53;;;19.80;99.90;;;;;;5053630;28;20087;-73
2022/11/10 13:35:27;;;;;;;6.05;3.03;;;19.60;99.90;;;;;;5067990;28;20045;-73
2022/11/10 13:38:31;;;;;;;4.30;2.70;;;19.60;99.90;;;;;;5048123;28;20122;-73
2022/11/10 13:41:24;;;;;;;5.28;2.92;;;19.50;99.90;;;;;;5061397;28;20129;-73
2022/11/10 13:44:26;;;;;;;4.35;2.80;;;19.40;99.90;;;;;;5062103;28;20059;-72
2022/11/10 13:47:33;;;;;;;4.70;2.58;;;19.30;99.90;;;;;;5068372;28;20160;-73
2022/11/10 13:50:43;;;;;;;4.05;2.42;;;19.20;99.90;;;;;;5051952;28;20059;-73
2022/11/10 13:53:50;;;;;;;5.15;3.20;;;19.20;99.90;;;;;;5068695;28;20062;-73
2022/11/10 13:57:01;;;;;;;5.88;3.20;;;19.10;99.90;;;;;;5058371;28;20087;-74
2022/11/10 13:59:55;;;;;;;5.22;3.10;;;19.10;99.90;;;;;;5075456;28;20049;-75
2022/11/10 14:02:45;;;;;;;3.63;3.03;;;19.10;99.90;;;;;;5065914;28;20114;-73
2022/11/10 14:05:36;;;;;;;7.25;3.85;;;19.00;99.90;;;;;;5068314;28;20052;-74
2022/11/10 14:08:27;;;;;;;6.10;3.58;;;19.00;99.90;;;;;;5065739;28;20375;-73
2022/11/10 14:11:26;;;;;;;5.32;3.33;;;19.00;99.90;;;;;;5069984;28;20036;-73
2022/11/10 14:14:23;;;;;;;4.28;2.72;;;19.00;99.90;;;;;;5065298;28;20072;-74
2022/11/10 14:17:20;;;;;;;7.13;3.33;;;18.80;99.90;;;;;;5051467;28;20048;-72
2022/11/10 14:20:24;;;;;;;5.90;3.95;;;18.80;99.90;;;;;;5064572;28;20380;-73
2022/11/10 14:23:33;;;;;;;3.85;2.80;;;18.70;99.90;;;;;;5049757;28;20056;-74
2022/11/10 14:26:41;;;;;;;5.18;3.10;;;18.70;99.90;;;;;;5066791;28;20044;-72
2022/11/10 14:29:30;;;;;;;6.25;2.88;;;18.70;99.90;;;;;;5067081;28;20463;-72
2022/11/10 14:32:21;;;;;;;6.40;3.42;;;18.70;99.90;;;;;;5050357;28;20068;-72
2022/11/10 14:35:19;;;;;;;5.20;2.78;;;18.70;99.90;;;;;;5069089;28;20057;-72
2022/11/10 14:38:13;;;;;;;7.72;3.53;;;18.70;99.90;;;;;;5056868;28;20045;-73
2022/11/10 14:41:05;;;;;;;4.22;2.70;;;18.70;99.90;;;;;;5057672;28;20059;-73
2022/11/10 14:44:06;;;;;;;4.82;2.95;;;18.70;99.90;;;;;;5056051;28;20410;-73
2022/11/10 14:46:53;;;;;;;3.50;2.53;;;18.80;99.90;;;;;;5061816;28;20059;-72
2022/11/10 14:49:39;;;;;;;4.57;3.08;;;18.80;99.90;;;;;;5069348;28;20502;-73
2022/11/10 14:52:25;;;;;;;3.53;2.38;;;18.70;99.90;;;;;;5066673;28;20108;-72
2022/11/10 14:55:23;;;;;;;4.15;2.55;;;18.80;99.90;;;;;;5067804;28;20048;-72
2022/11/10 14:58:31;;;;;;;3.10;2.30;;;18.80;99.90;;;;;;5067991;28;20036;-73
2022/11/10 15:01:26;;;;;;;4.78;2.38;;;18.80;99.90;;;;;;5069308;28;20032;-74
2022/11/10 15:04:14;;;;;;;3.55;2.60;;;18.80;99.90;;;;;;5057419;28;20032;-74